sensor_id;sensor_type;location;lat;lon;timestamp;P1;durP1;ratioP1;P2;durP2;ratioP2
6438;SDS011;3252;52.540;13.290;2023-08-06T00:03:16;8.13;;;4.70;;
6438;SDS011;3252;52.540;13.290;2023-08-06T00:05:47;9.50;;;4.80;;
6438;SDS011;3252;52.540;13.290;2023-08-06T00:08:45;8.83;;;5.27;;
6438;SDS011;3252;52.540;13.290;2023-08-06T00:11:17;6.57;;;4.73;;
6438;SDS011;3252;52.540;13.290;2023-08-06T00:13:29;6.43;;;4.80;;
6438;SDS011;3252;52.540;13.290;2023-08-06T00:15:47;7.20;;;5.10;;
6438;SDS011;3252;52.540;13.290;2023-08-06T00:18:34;7.20;;;5.37;;
6438;SDS011;3252;52.540;13.290;2023-08-06T00:21:17;7.63;;;5.27;;
6438;SDS011;3252;52.540;13.290;2023-08-06T00:23:54;6.40;;;5.03;;
6438;SDS011;3252;52.540;13.290;2023-08-06T00:26:23;8.20;;;5.47;;
6438;SDS011;3252;52.540;13.290;2023-08-06T00:28:53;6.17;;;4.80;;
6438;SDS011;3252;52.540;13.290;2023-08-06T00:31:32;6.77;;;5.13;;
6438;SDS011;3252;52.540;13.290;2023-08-06T00:34:11;7.13;;;5.40;;
6438;SDS011;3252;52.540;13.290;2023-08-06T00:36:37;8.73;;;5.33;;
6438;SDS011;3252;52.540;13.290;2023-08-06T00:43:12;7.50;;;6.70;;
6438;SDS011;3252;52.540;13.290;2023-08-06T00:48:58;7.23;;;5.60;;
6438;SDS011;3252;52.540;13.290;2023-08-06T00:51:35;10.13;;;5.90;;
6438;SDS011;3252;52.540;13.290;2023-08-06T00:56:45;7.20;;;5.97;;
6438;SDS011;3252;52.540;13.290;2023-08-06T01:02:55;8.17;;;6.83;;
6438;SDS011;3252;52.540;13.290;2023-08-06T01:06:28;10.43;;;6.83;;
6438;SDS011;3252;52.540;13.290;2023-08-06T01:16:13;7.27;;;5.27;;
6438;SDS011;3252;52.540;13.290;2023-08-06T01:19:42;9.63;;;6.00;;
6438;SDS011;3252;52.540;13.290;2023-08-06T01:22:41;7.50;;;5.67;;
6438;SDS011;3252;52.540;13.290;2023-08-06T01:28:22;9.77;;;5.50;;
6438;SDS011;3252;52.540;13.290;2023-08-06T01:35:02;7.60;;;5.03;;
6438;SDS011;3252;52.540;13.290;2023-08-06T01:40:14;7.10;;;5.40;;
6438;SDS011;3252;52.540;13.290;2023-08-06T01:42:52;5.87;;;4.93;;
6438;SDS011;3252;52.540;13.290;2023-08-06T01:45:32;5.90;;;5.03;;
6438;SDS011;3252;52.540;13.290;2023-08-06T01:55:10;8.00;;;5.00;;
6438;SDS011;3252;52.540;13.290;2023-08-06T02:04:17;7.43;;;5.13;;
6438;SDS011;3252;52.540;13.290;2023-08-06T02:07:08;7.33;;;5.50;;
6438;SDS011;3252;52.540;13.290;2023-08-06T02:21:54;8.23;;;5.47;;
6438;SDS011;3252;52.540;13.290;2023-08-06T02:24:51;9.13;;;5.30;;
6438;SDS011;3252;52.540;13.290;2023-08-06T02:27:45;10.50;;;4.80;;
6438;SDS011;3252;52.540;13.290;2023-08-06T02:37:09;6.80;;;5.40;;
6438;SDS011;3252;52.540;13.290;2023-08-06T02:39:47;8.47;;;5.27;;
6438;SDS011;3252;52.540;13.290;2023-08-06T02:42:07;7.03;;;4.93;;
6438;SDS011;3252;52.540;13.290;2023-08-06T02:47:40;8.93;;;6.00;;
6438;SDS011;3252;52.540;13.290;2023-08-06T02:51:04;7.80;;;5.50;;
6438;SDS011;3252;52.540;13.290;2023-08-06T03:10:43;7.63;;;5.60;;
6438;SDS011;3252;52.540;13.290;2023-08-06T03:13:36;6.50;;;5.90;;
6438;SDS011;3252;52.540;13.290;2023-08-06T03:16:06;6.17;;;5.57;;
6438;SDS011;3252;52.540;13.290;2023-08-06T03:18:35;6.73;;;5.60;;
6438;SDS011;3252;52.540;13.290;2023-08-06T03:21:07;7.93;;;5.30;;
6438;SDS011;3252;52.540;13.290;2023-08-06T03:23:22;7.37;;;5.93;;
6438;SDS011;3252;52.540;13.290;2023-08-06T03:25:34;7.30;;;5.80;;
6438;SDS011;3252;52.540;13.290;2023-08-06T03:29:07;6.60;;;5.90;;
6438;SDS011;3252;52.540;13.290;2023-08-06T03:31:39;7.30;;;5.73;;
6438;SDS011;3252;52.540;13.290;2023-08-06T03:35:15;7.40;;;6.00;;
6438;SDS011;3252;52.540;13.290;2023-08-06T03:37:39;5.70;;;4.90;;
6438;SDS011;3252;52.540;13.290;2023-08-06T03:40:05;6.23;;;5.23;;
6438;SDS011;3252;52.540;13.290;2023-08-06T03:42:18;6.47;;;5.53;;
6438;SDS011;3252;52.540;13.290;2023-08-06T03:48:02;9.80;;;6.57;;
6438;SDS011;3252;52.540;13.290;2023-08-06T03:53:42;9.90;;;5.87;;
6438;SDS011;3252;52.540;13.290;2023-08-06T03:55:53;6.73;;;6.03;;
6438;SDS011;3252;52.540;13.290;2023-08-06T03:58:29;7.67;;;6.30;;
6438;SDS011;3252;52.540;13.290;2023-08-06T04:00:45;7.57;;;6.50;;
6438;SDS011;3252;52.540;13.290;2023-08-06T04:03:19;7.17;;;5.83;;
6438;SDS011;3252;52.540;13.290;2023-08-06T04:06:07;6.70;;;5.73;;
6438;SDS011;3252;52.540;13.290;2023-08-06T04:09:21;7.27;;;5.73;;
6438;SDS011;3252;52.540;13.290;2023-08-06T04:14:46;6.50;;;5.50;;
6438;SDS011;3252;52.540;13.290;2023-08-06T04:17:08;9.30;;;6.27;;
6438;SDS011;3252;52.540;13.290;2023-08-06T04:19:34;7.93;;;6.07;;
6438;SDS011;3252;52.540;13.290;2023-08-06T04:23:12;6.30;;;5.70;;
6438;SDS011;3252;52.540;13.290;2023-08-06T04:24:39;5.97;;;5.07;;
6438;SDS011;3252;52.540;13.290;2023-08-06T04:26:52;5.97;;;5.37;;
6438;SDS011;3252;52.540;13.290;2023-08-06T04:29:46;6.57;;;5.73;;
6438;SDS011;3252;52.540;13.290;2023-08-06T04:31:53;7.43;;;5.57;;
6438;SDS011;3252;52.540;13.290;2023-08-06T04:34:14;6.47;;;5.53;;
6438;SDS011;3252;52.540;13.290;2023-08-06T04:39:52;7.43;;;5.70;;
6438;SDS011;3252;52.540;13.290;2023-08-06T04:42:32;6.90;;;5.87;;
6438;SDS011;3252;52.540;13.290;2023-08-06T04:45:29;7.33;;;5.70;;
6438;SDS011;3252;52.540;13.290;2023-08-06T04:54:24;6.87;;;6.17;;
6438;SDS011;3252;52.540;13.290;2023-08-06T04:57:15;9.43;;;6.50;;
6438;SDS011;3252;52.540;13.290;2023-08-06T05:00:08;7.83;;;6.03;;
6438;SDS011;3252;52.540;13.290;2023-08-06T05:02:44;7.70;;;6.07;;
6438;SDS011;3252;52.540;13.290;2023-08-06T05:05:17;13.10;;;5.67;;
6438;SDS011;3252;52.540;13.290;2023-08-06T05:07:32;7.43;;;5.57;;
6438;SDS011;3252;52.540;13.290;2023-08-06T05:09:59;7.33;;;6.47;;
6438;SDS011;3252;52.540;13.290;2023-08-06T05:12:40;7.80;;;5.50;;
6438;SDS011;3252;52.540;13.290;2023-08-06T05:14:58;8.00;;;5.80;;
6438;SDS011;3252;52.540;13.290;2023-08-06T05:18:10;7.33;;;6.07;;
6438;SDS011;3252;52.540;13.290;2023-08-06T05:20:35;6.07;;;5.27;;
6438;SDS011;3252;52.540;13.290;2023-08-06T05:22:54;6.17;;;5.57;;
6438;SDS011;3252;52.540;13.290;2023-08-06T05:25:29;5.97;;;5.37;;
6438;SDS011;3252;52.540;13.290;2023-08-06T05:37:19;6.77;;;6.17;;
6438;SDS011;3252;52.540;13.290;2023-08-06T05:39:44;6.40;;;5.73;;
6438;SDS011;3252;52.540;13.290;2023-08-06T05:41:54;7.30;;;6.37;;
6438;SDS011;3252;52.540;13.290;2023-08-06T05:44:19;6.67;;;5.70;;
6438;SDS011;3252;52.540;13.290;2023-08-06T05:47:07;8.33;;;6.27;;
6438;SDS011;3252;52.540;13.290;2023-08-06T05:49:22;6.70;;;5.80;;
6438;SDS011;3252;52.540;13.290;2023-08-06T05:51:34;8.00;;;6.07;;
6438;SDS011;3252;52.540;13.290;2023-08-06T05:53:49;6.50;;;5.90;;
6438;SDS011;3252;52.540;13.290;2023-08-06T05:55:57;6.43;;;5.73;;
6438;SDS011;3252;52.540;13.290;2023-08-06T05:58:02;7.73;;;5.40;;
6438;SDS011;3252;52.540;13.290;2023-08-06T06:00:08;5.97;;;5.17;;
6438;SDS011;3252;52.540;13.290;2023-08-06T06:02:25;5.93;;;4.53;;
6438;SDS011;3252;52.540;13.290;2023-08-06T06:04:31;5.53;;;4.80;;
6438;SDS011;3252;52.540;13.290;2023-08-06T06:06:34;6.13;;;4.90;;
6438;SDS011;3252;52.540;13.290;2023-08-06T06:08:49;5.17;;;4.50;;
6438;SDS011;3252;52.540;13.290;2023-08-06T06:11:24;4.97;;;4.53;;
6438;SDS011;3252;52.540;13.290;2023-08-06T06:13:31;5.67;;;4.60;;
6438;SDS011;3252;52.540;13.290;2023-08-06T06:15:35;6.83;;;4.97;;
6438;SDS011;3252;52.540;13.290;2023-08-06T06:17:41;6.30;;;4.93;;
6438;SDS011;3252;52.540;13.290;2023-08-06T06:22:33;8.07;;;5.23;;
6438;SDS011;3252;52.540;13.290;2023-08-06T06:24:43;6.13;;;5.53;;
6438;SDS011;3252;52.540;13.290;2023-08-06T06:26:47;6.87;;;6.17;;
6438;SDS011;3252;52.540;13.290;2023-08-06T06:29:00;6.60;;;5.93;;
6438;SDS011;3252;52.540;13.290;2023-08-06T06:31:10;7.03;;;6.23;;
6438;SDS011;3252;52.540;13.290;2023-08-06T06:33:33;7.43;;;6.53;;
6438;SDS011;3252;52.540;13.290;2023-08-06T06:35:37;10.80;;;6.87;;
6438;SDS011;3252;52.540;13.290;2023-08-06T06:37:41;7.50;;;5.40;;
6438;SDS011;3252;52.540;13.290;2023-08-06T06:39:47;7.67;;;6.00;;
6438;SDS011;3252;52.540;13.290;2023-08-06T06:41:50;7.90;;;6.57;;
6438;SDS011;3252;52.540;13.290;2023-08-06T06:44:00;7.63;;;5.53;;
6438;SDS011;3252;52.540;13.290;2023-08-06T06:46:03;5.67;;;5.00;;
6438;SDS011;3252;52.540;13.290;2023-08-06T06:48:06;5.97;;;4.87;;
6438;SDS011;3252;52.540;13.290;2023-08-06T06:50:11;5.60;;;4.33;;
6438;SDS011;3252;52.540;13.290;2023-08-06T06:52:17;4.73;;;4.30;;
6438;SDS011;3252;52.540;13.290;2023-08-06T06:54:25;6.57;;;4.40;;
6438;SDS011;3252;52.540;13.290;2023-08-06T06:56:28;6.33;;;5.00;;
6438;SDS011;3252;52.540;13.290;2023-08-06T06:58:31;5.27;;;4.50;;
6438;SDS011;3252;52.540;13.290;2023-08-06T07:00:39;4.40;;;4.00;;
6438;SDS011;3252;52.540;13.290;2023-08-06T07:02:42;5.67;;;4.43;;
6438;SDS011;3252;52.540;13.290;2023-08-06T07:04:45;4.10;;;3.70;;
6438;SDS011;3252;52.540;13.290;2023-08-06T07:06:49;5.40;;;4.13;;
6438;SDS011;3252;52.540;13.290;2023-08-06T07:08:54;4.67;;;4.23;;
6438;SDS011;3252;52.540;13.290;2023-08-06T07:10:59;5.00;;;4.57;;
6438;SDS011;3252;52.540;13.290;2023-08-06T07:13:04;6.07;;;4.30;;
6438;SDS011;3252;52.540;13.290;2023-08-06T07:15:07;5.77;;;5.00;;
6438;SDS011;3252;52.540;13.290;2023-08-06T07:17:11;6.40;;;5.40;;
6438;SDS011;3252;52.540;13.290;2023-08-06T07:19:18;6.37;;;5.50;;
6438;SDS011;3252;52.540;13.290;2023-08-06T07:21:22;5.87;;;5.27;;
6438;SDS011;3252;52.540;13.290;2023-08-06T07:23:27;6.63;;;5.77;;
6438;SDS011;3252;52.540;13.290;2023-08-06T07:25:30;8.03;;;6.50;;
6438;SDS011;3252;52.540;13.290;2023-08-06T07:27:36;7.90;;;6.40;;
6438;SDS011;3252;52.540;13.290;2023-08-06T07:29:40;7.37;;;5.97;;
6438;SDS011;3252;52.540;13.290;2023-08-06T07:31:49;6.77;;;5.77;;
6438;SDS011;3252;52.540;13.290;2023-08-06T07:33:52;6.47;;;5.87;;
6438;SDS011;3252;52.540;13.290;2023-08-06T07:35:55;7.50;;;6.10;;
6438;SDS011;3252;52.540;13.290;2023-08-06T07:37:59;6.40;;;5.73;;
6438;SDS011;3252;52.540;13.290;2023-08-06T07:40:04;6.10;;;5.50;;
6438;SDS011;3252;52.540;13.290;2023-08-06T07:42:07;8.57;;;6.63;;
6438;SDS011;3252;52.540;13.290;2023-08-06T07:44:12;7.23;;;5.97;;
6438;SDS011;3252;52.540;13.290;2023-08-06T07:46:15;8.57;;;6.97;;
6438;SDS011;3252;52.540;13.290;2023-08-06T07:48:19;8.13;;;6.80;;
6438;SDS011;3252;52.540;13.290;2023-08-06T07:50:30;8.03;;;7.30;;
6438;SDS011;3252;52.540;13.290;2023-08-06T07:52:34;8.13;;;6.83;;
6438;SDS011;3252;52.540;13.290;2023-08-06T07:54:47;8.20;;;7.40;;
6438;SDS011;3252;52.540;13.290;2023-08-06T07:57:06;9.83;;;8.10;;
6438;SDS011;3252;52.540;13.290;2023-08-06T07:59:09;10.57;;;8.20;;
6438;SDS011;3252;52.540;13.290;2023-08-06T08:01:16;8.77;;;7.80;;
6438;SDS011;3252;52.540;13.290;2023-08-06T08:03:20;9.63;;;7.97;;
6438;SDS011;3252;52.540;13.290;2023-08-06T08:05:22;8.90;;;8.00;;
6438;SDS011;3252;52.540;13.290;2023-08-06T08:07:25;8.80;;;7.90;;
6438;SDS011;3252;52.540;13.290;2023-08-06T08:09:31;8.47;;;7.63;;
6438;SDS011;3252;52.540;13.290;2023-08-06T08:11:36;7.90;;;7.03;;
6438;SDS011;3252;52.540;13.290;2023-08-06T08:13:41;1077.47;;;770.03;;
6438;SDS011;3252;52.540;13.290;2023-08-06T08:15:44;833.23;;;642.27;;
6438;SDS011;3252;52.540;13.290;2023-08-06T08:17:47;1999.90;;;999.90;;
6438;SDS011;3252;52.540;13.290;2023-08-06T08:19:52;1999.90;;;999.90;;
6438;SDS011;3252;52.540;13.290;2023-08-06T08:21:59;1686.57;;;994.73;;
6438;SDS011;3252;52.540;13.290;2023-08-06T08:24:39;532.10;;;393.83;;
6438;SDS011;3252;52.540;13.290;2023-08-06T08:26:45;79.90;;;50.10;;
6438;SDS011;3252;52.540;13.290;2023-08-06T08:28:52;21.67;;;14.13;;
6438;SDS011;3252;52.540;13.290;2023-08-06T08:31:27;9.57;;;8.57;;
6438;SDS011;3252;52.540;13.290;2023-08-06T08:33:43;8.97;;;8.07;;
6438;SDS011;3252;52.540;13.290;2023-08-06T08:35:47;10.27;;;7.80;;
6438;SDS011;3252;52.540;13.290;2023-08-06T08:37:51;8.70;;;7.83;;
6438;SDS011;3252;52.540;13.290;2023-08-06T08:39:55;10.67;;;8.03;;
6438;SDS011;3252;52.540;13.290;2023-08-06T08:44:45;10.17;;;9.13;;
6438;SDS011;3252;52.540;13.290;2023-08-06T08:46:50;11.37;;;8.67;;
6438;SDS011;3252;52.540;13.290;2023-08-06T08:48:54;10.07;;;8.33;;
6438;SDS011;3252;52.540;13.290;2023-08-06T08:51:06;9.27;;;8.37;;
6438;SDS011;3252;52.540;13.290;2023-08-06T08:53:39;9.77;;;8.77;;
6438;SDS011;3252;52.540;13.290;2023-08-06T08:58:18;13.30;;;11.63;;
6438;SDS011;3252;52.540;13.290;2023-08-06T09:00:23;11.47;;;9.37;;
6438;SDS011;3252;52.540;13.290;2023-08-06T09:02:28;9.70;;;8.67;;
6438;SDS011;3252;52.540;13.290;2023-08-06T09:04:32;9.80;;;8.80;;
6438;SDS011;3252;52.540;13.290;2023-08-06T09:06:38;9.77;;;8.20;;
6438;SDS011;3252;52.540;13.290;2023-08-06T09:08:51;9.67;;;8.67;;
6438;SDS011;3252;52.540;13.290;2023-08-06T09:11:05;9.93;;;8.63;;
6438;SDS011;3252;52.540;13.290;2023-08-06T09:13:17;9.90;;;8.30;;
6438;SDS011;3252;52.540;13.290;2023-08-06T09:15:28;12.03;;;8.20;;
6438;SDS011;3252;52.540;13.290;2023-08-06T09:17:31;8.17;;;7.47;;
6438;SDS011;3252;52.540;13.290;2023-08-06T09:19:35;9.33;;;8.17;;
6438;SDS011;3252;52.540;13.290;2023-08-06T09:21:38;9.33;;;8.43;;
6438;SDS011;3252;52.540;13.290;2023-08-06T09:23:43;10.60;;;8.23;;
6438;SDS011;3252;52.540;13.290;2023-08-06T09:25:49;8.70;;;7.80;;
6438;SDS011;3252;52.540;13.290;2023-08-06T09:27:52;9.00;;;7.80;;
6438;SDS011;3252;52.540;13.290;2023-08-06T09:29:55;9.23;;;7.83;;
6438;SDS011;3252;52.540;13.290;2023-08-06T09:31:58;9.70;;;8.70;;
6438;SDS011;3252;52.540;13.290;2023-08-06T09:34:01;9.53;;;7.70;;
6438;SDS011;3252;52.540;13.290;2023-08-06T09:36:08;9.57;;;8.50;;
6438;SDS011;3252;52.540;13.290;2023-08-06T09:38:12;9.37;;;8.33;;
6438;SDS011;3252;52.540;13.290;2023-08-06T09:40:26;11.00;;;8.67;;
6438;SDS011;3252;52.540;13.290;2023-08-06T09:42:30;11.17;;;10.07;;
6438;SDS011;3252;52.540;13.290;2023-08-06T09:44:50;11.20;;;9.77;;
6438;SDS011;3252;52.540;13.290;2023-08-06T09:46:54;9.37;;;8.40;;
6438;SDS011;3252;52.540;13.290;2023-08-06T09:48:58;9.27;;;8.33;;
6438;SDS011;3252;52.540;13.290;2023-08-06T09:51:04;9.23;;;8.33;;
6438;SDS011;3252;52.540;13.290;2023-08-06T09:53:08;11.30;;;8.70;;
6438;SDS011;3252;52.540;13.290;2023-08-06T09:55:10;9.77;;;8.87;;
6438;SDS011;3252;52.540;13.290;2023-08-06T09:57:13;9.47;;;8.50;;
6438;SDS011;3252;52.540;13.290;2023-08-06T09:59:17;9.77;;;8.27;;
6438;SDS011;3252;52.540;13.290;2023-08-06T10:01:20;9.87;;;9.00;;
6438;SDS011;3252;52.540;13.290;2023-08-06T10:03:25;9.33;;;8.50;;
6438;SDS011;3252;52.540;13.290;2023-08-06T10:05:30;12.33;;;9.07;;
6438;SDS011;3252;52.540;13.290;2023-08-06T10:07:34;9.07;;;8.17;;
6438;SDS011;3252;52.540;13.290;2023-08-06T10:09:36;11.70;;;10.40;;
6438;SDS011;3252;52.540;13.290;2023-08-06T10:11:39;9.77;;;8.80;;
6438;SDS011;3252;52.540;13.290;2023-08-06T10:13:42;9.90;;;8.90;;
6438;SDS011;3252;52.540;13.290;2023-08-06T10:15:46;13.87;;;12.33;;
6438;SDS011;3252;52.540;13.290;2023-08-06T10:17:53;10.83;;;9.57;;
6438;SDS011;3252;52.540;13.290;2023-08-06T10:20:05;10.23;;;8.77;;
6438;SDS011;3252;52.540;13.290;2023-08-06T10:22:15;10.50;;;9.50;;
6438;SDS011;3252;52.540;13.290;2023-08-06T10:24:18;10.03;;;8.93;;
6438;SDS011;3252;52.540;13.290;2023-08-06T10:26:24;10.70;;;9.60;;
6438;SDS011;3252;52.540;13.290;2023-08-06T10:28:36;9.80;;;8.80;;
6438;SDS011;3252;52.540;13.290;2023-08-06T10:30:43;10.87;;;9.77;;
6438;SDS011;3252;52.540;13.290;2023-08-06T10:32:48;10.10;;;8.63;;
6438;SDS011;3252;52.540;13.290;2023-08-06T10:34:57;12.50;;;9.93;;
6438;SDS011;3252;52.540;13.290;2023-08-06T10:37:03;10.57;;;9.57;;
6438;SDS011;3252;52.540;13.290;2023-08-06T10:39:08;11.53;;;10.23;;
6438;SDS011;3252;52.540;13.290;2023-08-06T10:41:18;12.07;;;10.70;;
6438;SDS011;3252;52.540;13.290;2023-08-06T10:43:25;11.73;;;10.63;;
6438;SDS011;3252;52.540;13.290;2023-08-06T10:45:29;11.10;;;10.00;;
6438;SDS011;3252;52.540;13.290;2023-08-06T10:47:34;13.00;;;10.30;;
6438;SDS011;3252;52.540;13.290;2023-08-06T10:49:40;10.33;;;8.70;;
6438;SDS011;3252;52.540;13.290;2023-08-06T10:51:42;9.97;;;8.97;;
6438;SDS011;3252;52.540;13.290;2023-08-06T10:53:48;9.20;;;8.30;;
6438;SDS011;3252;52.540;13.290;2023-08-06T10:55:56;10.40;;;9.30;;
6438;SDS011;3252;52.540;13.290;2023-08-06T10:58:00;10.07;;;8.93;;
6438;SDS011;3252;52.540;13.290;2023-08-06T11:00:04;11.07;;;9.23;;
6438;SDS011;3252;52.540;13.290;2023-08-06T11:02:08;9.73;;;8.70;;
6438;SDS011;3252;52.540;13.290;2023-08-06T11:04:11;10.57;;;9.37;;
6438;SDS011;3252;52.540;13.290;2023-08-06T11:06:17;10.70;;;9.60;;
6438;SDS011;3252;52.540;13.290;2023-08-06T11:08:24;9.97;;;8.97;;
6438;SDS011;3252;52.540;13.290;2023-08-06T11:10:28;10.80;;;9.53;;
6438;SDS011;3252;52.540;13.290;2023-08-06T11:12:32;10.30;;;9.30;;
6438;SDS011;3252;52.540;13.290;2023-08-06T11:14:35;10.97;;;9.87;;
6438;SDS011;3252;52.540;13.290;2023-08-06T11:16:38;11.83;;;8.73;;
6438;SDS011;3252;52.540;13.290;2023-08-06T11:18:42;10.97;;;9.83;;
6438;SDS011;3252;52.540;13.290;2023-08-06T11:20:44;11.40;;;10.20;;
6438;SDS011;3252;52.540;13.290;2023-08-06T11:22:47;10.37;;;8.90;;
6438;SDS011;3252;52.540;13.290;2023-08-06T11:24:49;11.37;;;10.10;;
6438;SDS011;3252;52.540;13.290;2023-08-06T11:26:52;11.20;;;10.03;;
6438;SDS011;3252;52.540;13.290;2023-08-06T11:28:56;11.97;;;10.27;;
6438;SDS011;3252;52.540;13.290;2023-08-06T11:30:59;11.87;;;9.80;;
6438;SDS011;3252;52.540;13.290;2023-08-06T11:33:06;14.57;;;11.33;;
6438;SDS011;3252;52.540;13.290;2023-08-06T11:35:10;15.33;;;11.97;;
6438;SDS011;3252;52.540;13.290;2023-08-06T11:37:14;15.27;;;12.47;;
6438;SDS011;3252;52.540;13.290;2023-08-06T11:39:17;14.20;;;11.23;;
6438;SDS011;3252;52.540;13.290;2023-08-06T11:41:20;13.53;;;10.40;;
6438;SDS011;3252;52.540;13.290;2023-08-06T11:43:23;13.07;;;11.40;;
6438;SDS011;3252;52.540;13.290;2023-08-06T11:45:30;13.23;;;11.10;;
6438;SDS011;3252;52.540;13.290;2023-08-06T11:47:32;13.13;;;11.83;;
6438;SDS011;3252;52.540;13.290;2023-08-06T11:49:38;16.10;;;11.57;;
6438;SDS011;3252;52.540;13.290;2023-08-06T11:51:40;22.30;;;13.73;;
6438;SDS011;3252;52.540;13.290;2023-08-06T11:53:46;14.53;;;13.10;;
6438;SDS011;3252;52.540;13.290;2023-08-06T11:55:51;14.90;;;12.37;;
6438;SDS011;3252;52.540;13.290;2023-08-06T11:57:54;16.53;;;12.27;;
6438;SDS011;3252;52.540;13.290;2023-08-06T12:00:01;15.23;;;13.00;;
6438;SDS011;3252;52.540;13.290;2023-08-06T12:02:14;15.77;;;12.13;;
6438;SDS011;3252;52.540;13.290;2023-08-06T12:04:17;18.83;;;12.70;;
6438;SDS011;3252;52.540;13.290;2023-08-06T12:06:20;15.90;;;12.57;;
6438;SDS011;3252;52.540;13.290;2023-08-06T12:08:26;12.37;;;11.10;;
6438;SDS011;3252;52.540;13.290;2023-08-06T12:10:30;13.97;;;12.40;;
6438;SDS011;3252;52.540;13.290;2023-08-06T12:12:34;16.43;;;13.30;;
6438;SDS011;3252;52.540;13.290;2023-08-06T12:14:39;19.10;;;14.93;;
6438;SDS011;3252;52.540;13.290;2023-08-06T12:16:42;17.40;;;15.60;;
6438;SDS011;3252;52.540;13.290;2023-08-06T12:18:48;16.57;;;14.77;;
6438;SDS011;3252;52.540;13.290;2023-08-06T12:20:50;15.03;;;12.40;;
6438;SDS011;3252;52.540;13.290;2023-08-06T12:22:53;12.27;;;11.03;;
6438;SDS011;3252;52.540;13.290;2023-08-06T12:25:03;11.43;;;10.07;;
6438;SDS011;3252;52.540;13.290;2023-08-06T12:27:09;14.70;;;12.23;;
6438;SDS011;3252;52.540;13.290;2023-08-06T12:29:30;12.23;;;11.00;;
6438;SDS011;3252;52.540;13.290;2023-08-06T12:32:00;10.87;;;9.80;;
6438;SDS011;3252;52.540;13.290;2023-08-06T12:34:05;10.53;;;8.70;;
6438;SDS011;3252;52.540;13.290;2023-08-06T12:36:08;7.93;;;7.13;;
6438;SDS011;3252;52.540;13.290;2023-08-06T12:38:20;8.53;;;7.50;;
6438;SDS011;3252;52.540;13.290;2023-08-06T12:40:26;9.63;;;8.43;;
6438;SDS011;3252;52.540;13.290;2023-08-06T12:42:29;12.23;;;8.63;;
6438;SDS011;3252;52.540;13.290;2023-08-06T12:44:32;9.37;;;8.50;;
6438;SDS011;3252;52.540;13.290;2023-08-06T12:46:35;11.70;;;9.63;;
6438;SDS011;3252;52.540;13.290;2023-08-06T12:48:37;10.43;;;9.33;;
6438;SDS011;3252;52.540;13.290;2023-08-06T12:50:42;10.80;;;9.70;;
6438;SDS011;3252;52.540;13.290;2023-08-06T12:52:45;13.67;;;12.27;;
6438;SDS011;3252;52.540;13.290;2023-08-06T12:54:48;16.77;;;11.37;;
6438;SDS011;3252;52.540;13.290;2023-08-06T12:56:52;11.33;;;10.13;;
6438;SDS011;3252;52.540;13.290;2023-08-06T12:58:55;11.43;;;10.17;;
6438;SDS011;3252;52.540;13.290;2023-08-06T13:01:05;11.53;;;10.33;;
6438;SDS011;3252;52.540;13.290;2023-08-06T13:03:22;12.40;;;11.10;;
6438;SDS011;3252;52.540;13.290;2023-08-06T13:05:33;12.37;;;10.63;;
6438;SDS011;3252;52.540;13.290;2023-08-06T13:07:38;10.50;;;9.37;;
6438;SDS011;3252;52.540;13.290;2023-08-06T13:09:53;11.20;;;10.10;;
6438;SDS011;3252;52.540;13.290;2023-08-06T13:12:03;11.50;;;10.27;;
6438;SDS011;3252;52.540;13.290;2023-08-06T13:14:08;11.60;;;9.30;;
6438;SDS011;3252;52.540;13.290;2023-08-06T13:16:19;11.17;;;10.03;;
6438;SDS011;3252;52.540;13.290;2023-08-06T13:18:22;10.93;;;9.83;;
6438;SDS011;3252;52.540;13.290;2023-08-06T13:20:26;12.80;;;11.50;;
6438;SDS011;3252;52.540;13.290;2023-08-06T13:22:39;12.73;;;10.23;;
6438;SDS011;3252;52.540;13.290;2023-08-06T13:24:42;12.17;;;9.57;;
6438;SDS011;3252;52.540;13.290;2023-08-06T13:26:51;9.60;;;8.60;;
6438;SDS011;3252;52.540;13.290;2023-08-06T13:28:54;11.67;;;8.93;;
6438;SDS011;3252;52.540;13.290;2023-08-06T13:31:00;9.20;;;7.73;;
6438;SDS011;3252;52.540;13.290;2023-08-06T13:33:05;10.97;;;8.23;;
6438;SDS011;3252;52.540;13.290;2023-08-06T13:35:12;11.77;;;8.13;;
6438;SDS011;3252;52.540;13.290;2023-08-06T13:37:15;10.73;;;8.67;;
6438;SDS011;3252;52.540;13.290;2023-08-06T13:39:24;8.77;;;7.30;;
6438;SDS011;3252;52.540;13.290;2023-08-06T13:41:27;9.63;;;8.60;;
6438;SDS011;3252;52.540;13.290;2023-08-06T13:43:32;8.70;;;7.90;;
6438;SDS011;3252;52.540;13.290;2023-08-06T13:45:35;9.23;;;7.57;;
6438;SDS011;3252;52.540;13.290;2023-08-06T13:47:43;9.17;;;8.13;;
6438;SDS011;3252;52.540;13.290;2023-08-06T13:49:55;11.43;;;8.40;;
6438;SDS011;3252;52.540;13.290;2023-08-06T13:52:08;9.67;;;7.83;;
6438;SDS011;3252;52.540;13.290;2023-08-06T13:54:17;12.83;;;8.83;;
6438;SDS011;3252;52.540;13.290;2023-08-06T13:56:24;12.50;;;8.70;;
6438;SDS011;3252;52.540;13.290;2023-08-06T13:58:27;10.63;;;8.47;;
6438;SDS011;3252;52.540;13.290;2023-08-06T14:00:31;9.67;;;8.03;;
6438;SDS011;3252;52.540;13.290;2023-08-06T14:02:34;10.63;;;8.13;;
6438;SDS011;3252;52.540;13.290;2023-08-06T14:04:44;14.00;;;8.93;;
6438;SDS011;3252;52.540;13.290;2023-08-06T14:06:48;11.40;;;8.00;;
6438;SDS011;3252;52.540;13.290;2023-08-06T14:09:00;11.17;;;8.10;;
6438;SDS011;3252;52.540;13.290;2023-08-06T14:11:05;9.17;;;7.77;;
6438;SDS011;3252;52.540;13.290;2023-08-06T14:13:10;11.50;;;8.10;;
6438;SDS011;3252;52.540;13.290;2023-08-06T14:15:21;12.47;;;8.60;;
6438;SDS011;3252;52.540;13.290;2023-08-06T14:17:25;9.00;;;8.10;;
6438;SDS011;3252;52.540;13.290;2023-08-06T14:19:29;10.17;;;7.60;;
6438;SDS011;3252;52.540;13.290;2023-08-06T14:21:33;7.80;;;6.93;;
6438;SDS011;3252;52.540;13.290;2023-08-06T14:23:36;10.47;;;6.93;;
6438;SDS011;3252;52.540;13.290;2023-08-06T14:25:48;8.50;;;7.07;;
6438;SDS011;3252;52.540;13.290;2023-08-06T14:28:18;8.77;;;7.20;;
6438;SDS011;3252;52.540;13.290;2023-08-06T14:30:24;8.40;;;5.90;;
6438;SDS011;3252;52.540;13.290;2023-08-06T14:32:30;9.00;;;6.50;;
6438;SDS011;3252;52.540;13.290;2023-08-06T14:34:33;8.37;;;5.67;;
6438;SDS011;3252;52.540;13.290;2023-08-06T14:36:34;7.50;;;5.03;;
6438;SDS011;3252;52.540;13.290;2023-08-06T14:38:47;9.07;;;4.87;;
6438;SDS011;3252;52.540;13.290;2023-08-06T14:40:59;13.87;;;7.13;;
6438;SDS011;3252;52.540;13.290;2023-08-06T14:43:05;6.97;;;4.00;;
6438;SDS011;3252;52.540;13.290;2023-08-06T14:45:12;6.00;;;4.03;;
6438;SDS011;3252;52.540;13.290;2023-08-06T14:47:21;7.53;;;4.20;;
6438;SDS011;3252;52.540;13.290;2023-08-06T14:49:52;5.87;;;3.40;;
6438;SDS011;3252;52.540;13.290;2023-08-06T14:52:18;8.10;;;3.80;;
6438;SDS011;3252;52.540;13.290;2023-08-06T14:54:30;7.70;;;4.10;;
6438;SDS011;3252;52.540;13.290;2023-08-06T14:57:26;10.23;;;4.13;;
6438;SDS011;3252;52.540;13.290;2023-08-06T14:59:53;9.23;;;3.97;;
6438;SDS011;3252;52.540;13.290;2023-08-06T15:02:25;7.23;;;4.37;;
6438;SDS011;3252;52.540;13.290;2023-08-06T15:04:31;7.50;;;4.20;;
6438;SDS011;3252;52.540;13.290;2023-08-06T15:06:34;8.97;;;4.40;;
6438;SDS011;3252;52.540;13.290;2023-08-06T15:08:37;7.33;;;4.40;;
6438;SDS011;3252;52.540;13.290;2023-08-06T15:10:40;8.80;;;4.10;;
6438;SDS011;3252;52.540;13.290;2023-08-06T15:12:45;5.27;;;4.00;;
6438;SDS011;3252;52.540;13.290;2023-08-06T15:14:48;7.23;;;4.50;;
6438;SDS011;3252;52.540;13.290;2023-08-06T15:16:51;7.57;;;3.87;;
6438;SDS011;3252;52.540;13.290;2023-08-06T15:18:58;7.63;;;4.60;;
6438;SDS011;3252;52.540;13.290;2023-08-06T15:21:03;8.30;;;4.60;;
6438;SDS011;3252;52.540;13.290;2023-08-06T15:23:10;4.50;;;4.00;;
6438;SDS011;3252;52.540;13.290;2023-08-06T15:25:19;8.33;;;4.30;;
6438;SDS011;3252;52.540;13.290;2023-08-06T15:27:24;5.43;;;3.83;;
6438;SDS011;3252;52.540;13.290;2023-08-06T15:29:42;6.53;;;4.33;;
6438;SDS011;3252;52.540;13.290;2023-08-06T15:32:11;7.33;;;4.53;;
6438;SDS011;3252;52.540;13.290;2023-08-06T15:34:42;13.93;;;5.13;;
6438;SDS011;3252;52.540;13.290;2023-08-06T15:36:49;12.50;;;7.43;;